Terminal Aerodrome Forecast
Issued by NWS

Home | Current Version | Previous Version | Graphics & Text | Print | Product List | Glossary On
Versions: 1 2 3 4 5 6 7 8 9 10 11 12 13 14 15 16 17 18 19 20 21 22 23 24 25
000
FTUS43 KLOT 210520
TAFDPA
TAF
KDPA 210520Z 2106/2206 14004KT 2SM BR FEW003 OVC250
      TEMPO 2106/2110 3/4SM BR BCFG VV004
     FM211000 25010KT P6SM BKN040
     FM211500 25015G25KT P6SM BKN035
     FM220100 24010KT P6SM BKN035=

USA.gov is the U.S. government's official web portal to all federal, state and local government web resources and services.